Página principal
METAR-TAF:

METAR-TAF

Aeroportos :

Grayling Army Airfield

Grayling, Michigan, Estados Unidos

latitude: 44-40-49N, longitude: 084-43-44W, altura: 353 m

Observação actual do tempo

O boletim foi feito há 24 minutos, às 20:58 UTC
Vento 9 kt de noroeste
Temperatura 31°C
Humidade 31%
Pressão 1011 hPa
Visibilidade: 14.5 km
Céu limpo

METAR: KGOV 272058Z AUTO 31009KT 9SM CLR 31/12 A2984 RMK AO2 SLP104 T03060121 50001 $

Hora: 17:22 (21:22 UTC)


TAF: em falta

Observações e previsões do tempo de mais de 4000 aeroportos (mensagens METAR e TAF).

As estações disponíveis são os pontos amarelos e vermelhos sobre o mapa.

Mova o rato sobre o mapa para ver o nome da estação.

Depois clique no ponto para visualizar as observações e previsões meteorológicas.

Para alterar o mapa : clique nos botões verdes com uma cruz preta para aumentar o zoom; no botão verde com uma pitada de zoom; ou nas setas verdes para mapas adjacentes.


METAR-TAF: